Fort Littleton, PA (17223)

11:37 AM EDT on October 21, 2014 (GMT -0400)
Ayr Township | Change Station
CLOSE
Current Station
Personal Weather Station
Location: McConnellsburg, PA
Elevation: 975 ft
Nearby Weather Stations

Elev 975 ft 39.92 °N, 77.99 °W | Updated 2 seconds ago

Partly Cloudy
Partly Cloudy
58.5 °F
Feels Like 58.5 °F
N
1.6
Wind Variable Wind from SW
Gusts 3.8 mph

Today
High -- | Low -- °F
--% Chance of Precip.
Yesterday
High -- | Low -- °F
Precip. -- in
7:28 AM 6:23 PM
Waning Crescent, 5% visible
Pressure 29.87 in
Visibility 10.0 miles
Clouds Few 900 ft
Mostly Cloudy 1600 ft
Overcast 2200 ft
Dew Point 32 °F
Humidity 37%
Rainfall 0.00 in
Snow Depth Not available.
UV 1 out of 12
Pollen .30 out of 12
Air Quality Not available.
Flu Activity Sporadic
SPECI KAOO 211500Z AUTO 27003KT 10SM FEW009 BKN016 OVC022 12/09 A2987 RMK AO2 T01170094

More Conditions Fewer Conditions

Pressure 29.87 in
Visibility 10.0 miles
Clouds Few 900 ft
Mostly Cloudy 1600 ft
Overcast 2200 ft
Dew Point 32 °F
Humidity 37%
Rainfall 0.00 in
Snow Depth Not available.
UV 1 out of 12
Pollen .30 out of 12
Air Quality Not available.
Flu Activity Sporadic
SPECI KAOO 211500Z AUTO 27003KT 10SM FEW009 BKN016 OVC022 12/09 A2987 RMK AO2 T01170094

More Conditions Fewer Conditions

10-Day Weather Forecast

Almanac

Astronomy

Oct. 21, 2014 Rise Set
Actual Time 7:28 AM EDT 6:23 PM EDT
Civil Twilight 7:01 AM EDT 6:51 PM EDT
Nautical Twilight 6:29 AM EDT 7:22 PM EDT
Astronomical Twilight 5:58 AM EDT 7:53 PM EDT
Moon 5:11 AM EDT 5:16 PM EDT
Length of Visible Light 11h 49m
Length of Day
10h 54m
Tomorrow will be 2m 29s shorter.
Waning Crescent, 5% of the Moon is Illuminated
Today
Waning Crescent
Oct 23
New
Oct 30
First Quarter
Nov 6
Full
Nov 14
Last Quarter

Today's Extremes

State Highs State Lows

Community

WunderPhotos

Upload Photos

1,763,697 photos uploaded!

WunderBlogs® & News

Nearby

Snow Depth

Station Depth Elevation
No new snow has been reported.

Earthquake Activity

City Distance Mag. Time & Date
No recent earthquake activity has been reported nearby.
Minimum magnitude displayed is 2.5.

Coastal Water Temperatures

Place Temperature
No Stations Reporting

Nearby Weather Stations